createdAt,value
2023-02-20T01:25:58.925Z,24.04
2023-02-20T02:14:57.679Z,23.90
2023-02-20T02:15:57.686Z,23.90
2023-02-20T02:16:57.627Z,23.90
2023-02-20T02:17:57.607Z,23.90
2023-02-20T02:18:57.585Z,23.86
2023-02-20T02:19:57.598Z,23.86
2023-02-20T02:20:57.528Z,23.90
2023-02-20T02:21:57.504Z,23.86
2023-02-20T02:22:57.476Z,23.89
2023-02-20T02:23:57.469Z,23.87
2023-02-20T02:24:57.461Z,23.89
2023-02-20T02:25:57.409Z,23.87
2023-02-20T02:26:57.385Z,23.89
2023-02-20T02:27:57.372Z,23.87
2023-02-20T02:28:57.342Z,23.89
2023-02-20T02:29:57.330Z,23.87
2023-02-20T02:30:57.305Z,23.87
2023-02-20T02:31:57.332Z,23.86
2023-02-20T02:32:57.252Z,23.87
2023-02-20T02:33:57.244Z,23.87
2023-02-20T02:34:57.381Z,23.90
2023-02-20T02:35:57.185Z,23.86
2023-02-20T02:36:57.159Z,23.86
2023-02-20T02:37:57.142Z,23.85
2023-02-20T02:38:57.139Z,23.85
2023-02-20T02:39:57.086Z,23.86
2023-02-20T02:40:57.078Z,23.86
2023-02-20T02:41:57.052Z,23.85
2023-02-20T02:42:57.012Z,23.86
2023-02-20T02:43:56.986Z,23.86
2023-02-20T02:44:56.956Z,23.87
2023-02-20T02:45:57.022Z,23.86
2023-02-20T02:46:56.921Z,23.86
2023-02-20T02:47:56.892Z,23.82
2023-02-20T02:48:56.875Z,23.85
2023-02-20T02:49:56.839Z,23.86
2023-02-20T02:50:56.804Z,23.86
2023-02-20T02:51:56.777Z,23.87
2023-02-20T02:52:56.743Z,23.85
2023-02-20T02:53:56.730Z,23.82
2023-02-20T02:54:56.704Z,23.86
2023-02-20T02:55:56.670Z,23.87
2023-02-20T02:56:56.641Z,23.85
2023-02-20T02:57:56.625Z,23.85
2023-02-20T02:58:56.592Z,23.82
2023-02-20T02:59:56.569Z,23.83
2023-02-20T03:00:56.564Z,23.86
2023-02-20T03:01:56.515Z,23.82
2023-02-20T03:02:56.490Z,23.85
2023-02-20T03:03:56.486Z,23.83
2023-02-20T03:04:56.440Z,23.80
2023-02-20T03:05:56.410Z,23.82
2023-02-20T03:06:56.378Z,23.83
2023-02-20T03:07:56.348Z,23.83
2023-02-20T03:08:56.318Z,23.83
2023-02-20T03:09:56.291Z,23.83
2023-02-20T03:10:56.274Z,23.82
2023-02-20T03:11:56.248Z,23.82
2023-02-20T03:12:56.214Z,23.83
2023-02-20T03:13:56.219Z,23.82
2023-02-20T03:14:56.184Z,23.83
2023-02-20T03:15:56.158Z,23.80
2023-02-20T03:16:56.127Z,23.80
2023-02-20T03:17:56.109Z,23.82
2023-02-20T03:18:56.077Z,23.83
2023-02-20T03:19:56.047Z,23.82
2023-02-20T03:20:56.027Z,23.80
2023-02-20T03:21:56.007Z,23.80
2023-02-20T03:22:55.986Z,23.80
2023-02-20T03:23:55.962Z,23.82
2023-02-20T03:24:55.932Z,23.82
2023-02-20T03:25:55.932Z,23.83
2023-02-20T03:26:55.890Z,23.79
2023-02-20T03:27:55.864Z,23.78
2023-02-20T03:28:55.842Z,23.83
2023-02-20T03:29:55.825Z,23.80
2023-02-20T03:30:55.808Z,23.82
2023-02-20T03:31:55.865Z,23.83
2023-02-20T03:32:55.747Z,23.78
2023-02-20T03:33:55.733Z,23.78
2023-02-20T03:34:55.701Z,23.80
2023-02-20T03:35:55.677Z,23.82
2023-02-20T03:36:55.652Z,23.82
2023-02-20T03:37:55.619Z,23.80
2023-02-20T03:38:55.600Z,23.79
2023-02-20T03:39:55.579Z,23.78
2023-02-20T03:40:55.558Z,23.79
2023-02-20T03:41:55.536Z,23.80
2023-02-20T03:42:55.502Z,23.79
2023-02-20T03:43:55.489Z,23.82
2023-02-20T03:44:55.452Z,23.80
2023-02-20T03:45:55.453Z,23.80
2023-02-20T03:46:55.413Z,23.79
2023-02-20T03:47:55.390Z,23.80
2023-02-20T03:48:55.360Z,23.79
2023-02-20T03:49:55.345Z,23.79
2023-02-20T03:50:55.324Z,23.76
2023-02-20T03:51:55.305Z,23.78
2023-02-20T03:52:55.267Z,23.78
2023-02-20T03:53:55.257Z,23.79
2023-02-20T03:54:55.234Z,23.76
2023-02-20T03:55:55.208Z,23.76
2023-02-20T03:56:55.188Z,23.78
2023-02-20T03:57:55.169Z,23.76
2023-02-20T03:58:55.152Z,23.79
2023-02-20T03:59:55.124Z,23.79
2023-02-20T04:00:55.167Z,23.80
2023-02-20T04:01:55.076Z,23.78
2023-02-20T04:02:55.049Z,23.75
2023-02-20T04:03:55.034Z,23.78
2023-02-20T04:04:55.011Z,23.75
2023-02-20T04:05:54.981Z,23.79
2023-02-20T04:06:54.964Z,23.78
2023-02-20T04:07:54.943Z,23.79
2023-02-20T04:08:54.924Z,23.76
2023-02-20T04:09:54.896Z,23.76
2023-02-20T04:10:54.885Z,23.78
2023-02-20T04:11:54.868Z,23.78
2023-02-20T04:12:54.835Z,23.78
2023-02-20T04:13:54.822Z,23.76
2023-02-20T04:14:54.796Z,23.75
2023-02-20T04:15:54.771Z,23.76
2023-02-20T04:16:54.792Z,23.76
2023-02-20T04:17:54.737Z,23.76
2023-02-20T04:18:54.721Z,23.78
2023-02-20T04:19:54.706Z,23.78
2023-02-20T04:20:54.679Z,23.75
2023-02-20T04:21:54.665Z,23.78
2023-02-20T04:22:54.637Z,23.76
2023-02-20T04:23:54.616Z,23.78
2023-02-20T04:24:54.601Z,23.79
2023-02-20T04:25:54.572Z,23.75
2023-02-20T04:26:54.608Z,23.72
2023-02-20T04:27:54.625Z,23.75
2023-02-20T04:28:54.517Z,23.76
2023-02-20T04:29:54.481Z,23.78
2023-02-20T04:30:54.500Z,23.76
2023-02-20T04:31:54.453Z,23.73
2023-02-20T04:32:54.419Z,23.75
2023-02-20T04:33:54.390Z,23.78
2023-02-20T04:34:54.377Z,23.76
2023-02-20T04:35:54.353Z,23.75
2023-02-20T04:36:54.326Z,23.78
2023-02-20T04:37:54.314Z,23.75
2023-02-20T04:38:54.289Z,23.76
2023-02-20T04:39:54.266Z,23.73
2023-02-20T04:40:54.261Z,23.75
2023-02-20T04:41:54.229Z,23.76
2023-02-20T04:42:54.242Z,23.76
2023-02-20T04:43:54.190Z,23.73
2023-02-20T04:44:54.174Z,23.75
2023-02-20T04:45:54.168Z,23.75
2023-02-20T04:46:54.150Z,23.76
2023-02-20T04:47:54.114Z,23.76
2023-02-20T04:48:54.099Z,23.75
2023-02-20T04:49:54.069Z,23.75
2023-02-20T04:50:54.053Z,23.72
2023-02-20T05:36:53.079Z,23.73
2023-02-20T05:37:53.053Z,23.72
2023-02-20T05:38:53.040Z,23.72
2023-02-20T05:39:53.014Z,23.73
2023-02-20T05:41:52.982Z,23.68
2023-02-20T05:42:52.954Z,23.69
2023-02-20T05:43:52.971Z,23.71
2023-02-20T05:44:52.924Z,23.71
2023-02-20T05:45:52.897Z,23.72
2023-02-20T05:46:52.880Z,23.68
2023-02-20T05:47:52.861Z,23.68
2023-02-20T05:48:52.833Z,23.69
2023-02-20T05:49:52.808Z,23.71
2023-02-20T05:50:52.787Z,23.72
2023-02-20T05:51:52.762Z,23.69
2023-02-20T05:52:52.753Z,23.71
2023-02-20T05:53:52.727Z,23.71
2023-02-20T05:54:52.700Z,23.71
2023-02-20T05:55:52.691Z,23.72
2023-02-20T05:56:52.656Z,23.73
2023-02-20T05:57:52.634Z,23.71
2023-02-20T05:58:52.638Z,23.66
2023-02-20T05:59:52.595Z,23.69
2023-02-20T06:00:52.575Z,23.71
2023-02-20T06:01:52.587Z,23.71
2023-02-20T06:02:52.537Z,23.69
2023-02-20T06:03:52.570Z,23.69
2023-02-20T06:04:52.536Z,23.69
2023-02-20T06:05:52.474Z,23.69
2023-02-20T06:06:52.456Z,23.69
2023-02-20T06:07:52.504Z,23.71
2023-02-20T06:08:52.431Z,23.72
2023-02-20T06:09:52.410Z,23.68
2023-02-20T06:10:52.378Z,23.71
2023-02-20T06:11:52.358Z,23.69
2023-02-20T06:12:52.342Z,23.69
2023-02-20T06:13:52.320Z,23.69
2023-02-20T06:14:52.312Z,23.68
2023-02-20T06:15:52.401Z,23.69
2023-02-20T06:16:52.264Z,23.68
2023-02-20T06:17:52.229Z,23.68
2023-02-20T06:18:52.224Z,23.68
2023-02-20T06:19:52.192Z,23.69
2023-02-20T06:20:52.179Z,23.72
2023-02-20T06:21:52.155Z,23.69
2023-02-20T06:22:52.136Z,23.66
2023-02-20T06:23:52.126Z,23.69
2023-02-20T06:24:52.102Z,23.69
2023-02-20T06:25:52.090Z,23.72
2023-02-20T06:26:52.069Z,23.69
2023-02-20T06:27:52.065Z,23.69
2023-02-20T06:28:52.041Z,23.68
2023-02-20T06:29:51.997Z,23.71
2023-02-20T06:30:52.073Z,23.72
2023-02-20T06:31:52.135Z,23.71
2023-02-20T06:32:51.945Z,23.71
2023-02-20T06:33:51.919Z,23.71
2023-02-20T06:34:51.909Z,23.69
2023-02-20T06:35:51.875Z,23.71
2023-02-20T06:36:51.856Z,23.72
2023-02-20T06:37:51.831Z,23.72
2023-02-20T06:38:51.840Z,23.69
2023-02-20T06:39:51.832Z,23.69
2023-02-20T06:40:51.804Z,23.71
2023-02-20T06:41:51.748Z,23.76
2023-02-20T06:42:51.728Z,23.80
2023-02-20T06:43:51.751Z,23.85
2023-02-20T06:44:51.696Z,23.90
2023-02-20T06:45:51.667Z,23.96
2023-02-20T06:46:51.693Z,24.00
2023-02-20T06:47:51.604Z,24.06
2023-02-20T06:48:51.598Z,24.09
2023-02-20T06:49:51.708Z,24.14
2023-02-20T06:50:51.535Z,24.20
2023-02-20T06:51:51.529Z,24.23
2023-02-20T06:52:51.504Z,24.27
2023-02-20T06:53:51.470Z,24.30
2023-02-20T06:54:51.539Z,24.32
2023-02-20T06:55:51.414Z,24.37
2023-02-20T06:56:51.378Z,24.42
2023-02-20T06:57:51.353Z,24.45
2023-02-20T06:58:51.352Z,24.47
2023-02-20T06:59:51.317Z,24.50
2023-02-20T07:00:51.305Z,24.56
2023-02-20T07:01:51.316Z,24.56
2023-02-20T07:27:50.398Z,25.10
2023-02-20T07:28:50.336Z,25.11
2023-02-20T07:29:50.306Z,25.13
2023-02-20T07:30:50.328Z,25.13
2023-02-20T07:31:50.332Z,25.14
2023-02-20T07:32:50.280Z,25.13
2023-02-20T07:33:50.174Z,25.13
2023-02-20T07:35:03.070Z,25.14
2023-02-20T07:35:51.128Z,25.14
2023-02-20T07:36:50.079Z,25.17
2023-02-20T07:37:50.038Z,25.17
2023-02-20T07:38:50.000Z,25.22
2023-02-20T07:39:49.969Z,25.25
2023-02-20T07:40:49.942Z,25.24
2023-02-20T07:41:49.908Z,25.25
2023-02-20T07:42:49.883Z,25.28
2023-02-20T07:43:49.838Z,25.28
2023-02-20T07:44:49.918Z,25.28
2023-02-20T07:45:49.792Z,25.30
2023-02-20T07:46:49.746Z,25.30
2023-02-20T07:47:49.738Z,25.32
2023-02-20T07:48:49.677Z,25.32
2023-02-20T07:49:49.626Z,25.34
2023-02-20T07:50:49.612Z,25.34
2023-02-20T07:51:49.558Z,25.35
2023-02-20T07:52:49.609Z,25.37
2023-02-20T07:53:49.504Z,25.37
2023-02-20T07:54:49.500Z,25.37
2023-02-20T07:55:49.427Z,25.37
2023-02-20T07:56:49.391Z,25.38
2023-02-20T07:57:49.353Z,25.37
2023-02-20T07:58:49.319Z,25.37
2023-02-20T10:33:44.142Z,25.70
2023-02-20T10:46:49.348Z,25.63
2023-02-20T10:48:43.560Z,25.65
2023-02-20T10:49:43.527Z,25.65
2023-02-20T10:50:43.486Z,25.68
2023-02-20T10:51:43.457Z,25.63
2023-02-20T10:52:43.421Z,25.66
2023-02-20T10:53:43.397Z,25.69
2023-02-20T10:54:43.341Z,25.68
2023-02-20T10:55:43.313Z,25.69
2023-02-20T10:56:43.271Z,25.69
2023-02-20T10:57:43.261Z,25.66
2023-02-20T10:58:43.204Z,25.68
2023-02-20T10:59:43.176Z,25.69
2023-02-20T11:00:43.150Z,25.70
2023-02-20T11:01:43.220Z,25.70
2023-02-20T11:02:43.072Z,25.72
2023-02-20T11:03:43.043Z,25.73
2023-02-20T11:04:43.112Z,25.72
2023-02-20T11:05:42.979Z,25.72
2023-02-20T11:06:42.953Z,25.73
2023-02-20T11:07:42.918Z,25.72
2023-02-20T11:08:42.870Z,25.73
2023-02-20T11:09:42.830Z,25.75
2023-02-20T11:10:42.799Z,25.73
2023-02-20T11:11:42.769Z,25.75
2023-02-20T11:12:42.738Z,25.75
2023-02-20T11:13:42.719Z,25.73
2023-02-20T11:14:42.664Z,25.77
2023-02-20T11:15:42.699Z,25.75
2023-02-20T11:16:42.618Z,25.76
2023-02-20T11:17:42.559Z,25.76
2023-02-20T11:18:42.516Z,25.79
2023-02-20T11:19:42.562Z,25.77
2023-02-20T11:20:42.467Z,25.77
2023-02-20T11:21:42.440Z,25.83
2023-02-20T11:22:42.364Z,25.80
2023-02-20T11:23:42.335Z,25.83
2023-02-20T11:24:42.287Z,25.81
2023-02-20T11:25:42.262Z,25.81
2023-02-20T11:26:42.244Z,25.83
2023-02-20T11:27:42.179Z,25.81
2023-02-20T11:28:42.144Z,25.80
2023-02-20T11:29:42.110Z,25.83
2023-02-20T11:30:42.172Z,25.83
2023-02-20T11:31:42.263Z,25.84
2023-02-20T11:32:41.980Z,25.84
2023-02-20T11:33:41.948Z,25.83
2023-02-20T11:34:41.913Z,25.86
2023-02-20T11:35:41.866Z,25.87
2023-02-20T11:36:41.840Z,25.86
2023-02-20T11:37:54.054Z,25.87
2023-02-20T11:38:42.761Z,25.93
2023-02-20T11:39:41.721Z,25.96
2023-02-20T11:40:41.768Z,25.98
2023-02-20T11:41:41.641Z,26.01
2023-02-20T11:42:41.664Z,26.01
2023-02-20T11:43:49.717Z,26.05
2023-02-20T11:44:42.532Z,26.05
2023-02-20T11:45:41.487Z,26.08
2023-02-20T11:46:41.494Z,26.09
2023-02-20T11:47:41.394Z,26.09
2023-02-20T11:48:41.364Z,26.14
2023-02-20T11:49:41.336Z,26.14
2023-02-20T11:50:41.277Z,26.14
2023-02-20T11:51:41.232Z,26.14
2023-02-20T11:52:41.184Z,26.15
2023-02-20T11:53:41.164Z,26.18
2023-02-20T11:54:41.105Z,26.18
2023-02-20T11:55:42.567Z,26.17
2023-02-20T11:56:41.012Z,26.20
2023-02-20T11:57:40.966Z,26.15
2023-02-20T11:58:40.941Z,26.18
2023-02-20T11:59:40.882Z,26.17
2023-02-20T12:00:40.827Z,26.15
2023-02-20T12:01:41.912Z,26.14
2023-02-20T12:02:40.817Z,26.14
2023-02-20T12:03:40.802Z,26.13
2023-02-20T12:04:40.715Z,26.11
2023-02-20T12:05:40.736Z,26.08
2023-02-20T12:06:40.612Z,26.09
2023-02-20T12:07:40.598Z,26.07
2023-02-20T12:08:40.560Z,26.07
2023-02-20T12:09:40.487Z,26.05
2023-02-20T12:10:40.449Z,26.03
2023-02-20T12:11:40.417Z,26.01
2023-02-20T12:12:40.373Z,26.00
2023-02-20T12:13:40.327Z,26.00
2023-02-20T12:14:40.285Z,26.00
2023-02-20T12:15:40.252Z,25.96
2023-02-20T12:16:40.205Z,25.91
2023-02-20T12:17:40.172Z,25.90
2023-02-20T12:18:40.134Z,25.89
2023-02-20T12:19:40.163Z,25.89
2023-02-20T12:20:40.090Z,25.87
2023-02-20T12:21:40.021Z,25.89
2023-02-20T12:22:39.972Z,25.84
2023-02-20T12:23:40.006Z,25.83
2023-02-20T12:24:39.942Z,25.83
2023-02-20T12:25:39.899Z,25.80
2023-02-20T12:26:39.820Z,25.77
2023-02-20T12:27:39.784Z,25.76
2023-02-20T12:28:39.724Z,25.73
2023-02-20T12:29:39.688Z,25.72
2023-02-20T12:30:39.728Z,25.69
2023-02-20T12:31:39.776Z,25.69
2023-02-20T12:32:39.576Z,25.69
2023-02-20T12:33:39.538Z,25.66
2023-02-20T12:34:39.495Z,25.69
2023-02-20T12:35:39.455Z,25.69
2023-02-20T12:36:39.407Z,25.65
2023-02-20T12:37:39.375Z,25.65
2023-02-20T12:38:39.360Z,25.65
2023-02-20T14:14:35.929Z,25.35
2023-02-20T15:18:33.716Z,25.17
2023-02-20T15:19:33.689Z,25.15
2023-02-20T15:21:33.626Z,25.15
2023-02-20T15:38:33.126Z,25.03
2023-02-20T15:44:32.936Z,24.97
2023-02-20T16:59:30.699Z,24.82
2023-02-20T17:00:30.687Z,24.82
2023-02-20T17:01:30.692Z,24.82
2023-02-20T17:02:30.632Z,24.82
2023-02-20T17:03:30.594Z,24.82
2023-02-20T17:04:30.667Z,24.80
2023-02-20T17:05:30.539Z,24.79
2023-02-20T17:06:30.705Z,24.79
2023-02-20T17:07:30.500Z,24.80
2023-02-20T17:08:30.475Z,24.80
2023-02-20T17:09:41.911Z,24.78
2023-02-20T17:11:30.411Z,24.79
2023-02-20T17:12:30.383Z,24.78
2023-02-20T17:13:30.375Z,24.79
2023-02-20T17:14:30.350Z,24.78
2023-02-20T17:15:30.319Z,24.78
2023-02-20T17:16:31.637Z,24.76
2023-02-20T17:17:30.289Z,24.78
2023-02-20T17:18:30.282Z,24.78
2023-02-20T17:19:30.248Z,24.78
2023-02-20T17:20:30.218Z,24.73
2023-02-20T17:21:30.205Z,24.75
2023-02-20T17:22:30.183Z,24.76
2023-02-20T17:23:30.150Z,24.75
2023-02-20T17:24:30.132Z,24.75
2023-02-20T17:25:30.112Z,24.72
2023-02-20T17:26:30.094Z,24.73
2023-02-20T17:27:30.093Z,24.72
2023-02-20T17:28:30.055Z,24.72
2023-02-20T17:29:30.032Z,24.69
2023-02-20T17:30:30.076Z,24.71
2023-02-20T17:31:30.088Z,24.71
2023-02-20T17:32:31.694Z,24.71
2023-02-20T17:33:29.922Z,24.72
2023-02-20T17:34:29.901Z,24.71
2023-02-20T17:35:29.873Z,24.71
2023-02-20T17:36:29.855Z,24.68
2023-02-20T17:37:29.897Z,24.68
2023-02-20T17:38:29.788Z,24.69
2023-02-20T17:39:29.763Z,24.69
2023-02-20T17:40:29.744Z,24.71
2023-02-20T17:41:29.714Z,24.69
2023-02-20T17:42:29.680Z,24.69
2023-02-20T17:43:29.667Z,24.68
2023-02-20T17:44:29.678Z,24.68
2023-02-20T17:45:29.619Z,24.68
2023-02-20T17:46:29.595Z,24.68
2023-02-20T17:47:29.566Z,24.68
2023-02-20T17:48:29.539Z,24.69
2023-02-20T17:49:29.507Z,24.66
2023-02-20T17:50:29.480Z,24.68
2023-02-20T17:51:29.461Z,24.65
2023-02-20T17:52:29.442Z,24.68
2023-02-20T17:53:29.463Z,24.63
2023-02-20T17:54:29.382Z,24.68
2023-02-20T17:55:29.356Z,24.66
2023-02-20T17:56:29.336Z,24.68
2023-02-20T23:28:28.968Z,24.34
2023-02-20T23:29:21.857Z,24.35
2023-02-20T23:30:20.910Z,24.34
2023-02-20T23:31:20.821Z,24.34
2023-02-20T23:32:20.783Z,24.34
2023-02-20T23:33:20.766Z,24.34
2023-02-20T23:34:20.742Z,24.34
2023-02-20T23:35:20.717Z,24.32
2023-02-20T23:36:20.694Z,24.32
2023-02-20T23:37:20.664Z,24.34
2023-02-20T23:38:20.649Z,24.34
2023-02-20T23:39:20.629Z,24.34
2023-02-20T23:40:27.344Z,24.34
2023-02-20T23:41:21.591Z,24.35
2023-02-20T23:42:20.564Z,24.35
2023-02-20T23:43:20.569Z,24.34
2023-02-20T23:44:20.548Z,24.32
2023-02-20T23:45:20.490Z,24.32
2023-02-20T23:46:20.464Z,24.34
2023-02-20T23:47:20.445Z,24.34
2023-02-20T23:48:20.423Z,24.32
2023-02-20T23:49:20.396Z,24.32
2023-02-20T23:50:20.378Z,24.32
2023-02-20T23:51:20.362Z,24.32
2023-02-20T23:52:20.328Z,24.34
2023-02-20T23:53:20.310Z,24.35
2023-02-20T23:54:20.285Z,24.32
2023-02-20T23:55:20.259Z,24.32
2023-02-20T23:56:20.237Z,24.32
2023-02-20T23:57:20.195Z,24.34
2023-02-20T23:58:20.181Z,24.32
2023-02-20T23:59:20.151Z,24.34
